createdAt,value
2022-10-12T00:01:46.538Z,12.20
2022-10-12T00:04:13.270Z,12.20
2022-10-12T00:06:39.930Z,12.20
2022-10-12T00:09:06.660Z,12.20
2022-10-12T00:11:33.398Z,12.10
2022-10-12T00:14:00.225Z,12.10
2022-10-12T00:16:31.218Z,12.10
2022-10-12T00:18:59.112Z,12.00
2022-10-12T00:21:27.274Z,12.00
2022-10-12T00:24:00.740Z,11.90
2022-10-12T00:26:28.687Z,11.90
2022-10-12T00:29:00.567Z,11.90
2022-10-12T00:31:28.253Z,11.90
2022-10-12T00:33:55.117Z,11.90
2022-10-12T00:36:25.008Z,11.90
2022-10-12T00:38:54.416Z,11.90
2022-10-12T00:41:23.716Z,11.90
2022-10-12T00:43:56.814Z,11.90
2022-10-12T00:46:35.170Z,11.90
2022-10-12T00:49:20.360Z,11.90
2022-10-12T00:51:51.852Z,12.00
2022-10-12T00:54:28.023Z,11.90
2022-10-12T00:56:56.639Z,11.90
2022-10-12T00:59:30.940Z,11.90
2022-10-12T01:01:57.739Z,11.90
2022-10-12T01:04:25.002Z,11.90
2022-10-12T01:06:52.207Z,11.80
2022-10-12T01:09:20.742Z,11.80
2022-10-12T01:11:47.956Z,11.80
2022-10-12T01:14:15.028Z,11.80
2022-10-12T01:16:46.573Z,11.80
2022-10-12T01:19:23.021Z,11.80
2022-10-12T01:22:02.008Z,11.80
2022-10-12T01:24:40.730Z,11.80
2022-10-12T01:27:33.022Z,11.80
2022-10-12T01:30:08.485Z,11.80
2022-10-12T01:33:22.931Z,11.90
2022-10-12T01:36:05.297Z,11.90
2022-10-12T01:38:43.402Z,11.90
2022-10-12T01:41:28.838Z,11.90
2022-10-12T01:43:55.558Z,11.90
2022-10-12T01:46:25.071Z,11.90
2022-10-12T01:48:55.410Z,11.90
2022-10-12T01:51:51.197Z,11.90
2022-10-12T01:54:23.706Z,12.00
2022-10-12T01:57:05.196Z,11.90
2022-10-12T01:59:39.266Z,12.00
2022-10-12T02:02:14.805Z,11.90
2022-10-12T02:04:51.874Z,11.80
2022-10-12T02:07:37.948Z,11.80
2022-10-12T02:10:11.526Z,11.70
2022-10-12T02:12:41.252Z,11.70
2022-10-12T02:15:10.965Z,11.70
2022-10-12T02:17:40.020Z,11.70
2022-10-12T02:20:11.285Z,11.70
2022-10-12T02:22:40.237Z,11.70
2022-10-12T02:25:11.100Z,11.80
2022-10-12T02:27:41.861Z,11.80
2022-10-12T02:30:09.292Z,11.80
2022-10-12T02:32:42.906Z,11.80
2022-10-12T02:35:16.213Z,11.70
2022-10-12T02:37:57.376Z,11.70
2022-10-12T02:40:37.687Z,11.70
2022-10-12T02:43:29.382Z,11.60
2022-10-12T02:45:58.647Z,11.70
2022-10-12T02:48:26.824Z,11.60
2022-10-12T02:50:56.634Z,11.60
2022-10-12T02:53:25.733Z,11.70
2022-10-12T02:55:59.194Z,11.80
2022-10-12T02:58:50.944Z,11.80
2022-10-12T03:04:29.623Z,11.70
2022-10-12T03:06:56.314Z,11.70
2022-10-12T03:09:23.153Z,11.70
2022-10-12T03:11:49.991Z,11.90
2022-10-12T03:14:17.393Z,11.70
2022-10-12T03:16:46.268Z,11.80
2022-10-12T03:19:13.030Z,11.80
2022-10-12T03:21:39.794Z,11.80
2022-10-12T03:24:07.008Z,11.80
2022-10-12T03:26:34.298Z,11.80
2022-10-12T03:29:01.050Z,11.80
2022-10-12T03:31:27.746Z,11.80
2022-10-12T03:33:54.407Z,11.90
2022-10-12T03:36:21.087Z,11.90
2022-10-12T03:38:47.745Z,11.90
2022-10-12T03:41:14.441Z,11.90
2022-10-12T03:43:41.137Z,11.90
2022-10-12T03:46:07.968Z,11.90
2022-10-12T03:48:34.815Z,11.90
2022-10-12T03:51:01.626Z,11.90
2022-10-12T03:53:28.296Z,11.90
2022-10-12T03:55:55.015Z,11.90
2022-10-12T03:58:21.674Z,11.90
2022-10-12T04:00:53.352Z,11.90
2022-10-12T04:03:20.050Z,11.80
2022-10-12T04:05:54.614Z,11.90
2022-10-12T04:08:21.542Z,11.90
2022-10-12T04:10:48.228Z,11.80
2022-10-12T04:13:14.885Z,11.80
2022-10-12T04:15:41.540Z,11.80
2022-10-12T04:18:08.308Z,11.80
2022-10-12T04:20:35.023Z,11.80
2022-10-12T04:23:01.785Z,11.80
2022-10-12T04:25:30.232Z,11.80
2022-10-12T04:27:57.206Z,11.80
2022-10-12T04:30:23.902Z,11.80
2022-10-12T04:32:52.209Z,11.90
2022-10-12T04:35:18.930Z,11.90
2022-10-12T04:37:45.601Z,11.90
2022-10-12T04:40:12.281Z,12.00
2022-10-12T04:42:38.953Z,12.00
2022-10-12T04:45:06.081Z,12.00
2022-10-12T04:47:35.206Z,12.00
2022-10-12T04:50:01.965Z,12.00
2022-10-12T04:52:28.703Z,12.00
2022-10-12T04:54:55.429Z,12.10
2022-10-12T04:57:22.242Z,12.10
2022-10-12T04:59:48.990Z,12.10
2022-10-12T05:02:15.932Z,12.10
2022-10-12T05:04:42.609Z,12.10
2022-10-12T05:07:09.292Z,12.10
2022-10-12T05:09:35.977Z,12.10
2022-10-12T05:12:02.647Z,12.10
2022-10-12T05:14:33.572Z,12.00
2022-10-12T05:17:03.043Z,12.10
2022-10-12T05:19:29.800Z,12.10
2022-10-12T05:21:56.533Z,12.10
2022-10-12T05:24:23.221Z,12.10
2022-10-12T05:26:49.948Z,12.10
2022-10-12T05:29:16.642Z,12.10
2022-10-12T05:31:43.317Z,12.10
2022-10-12T05:34:10.080Z,12.10
2022-10-12T05:36:36.797Z,12.10
2022-10-12T05:39:03.839Z,12.20
2022-10-12T05:41:30.554Z,12.20
2022-10-12T05:43:57.228Z,12.20
2022-10-12T05:46:23.993Z,12.20
2022-10-12T05:48:50.662Z,12.10
2022-10-12T05:51:17.396Z,12.10
2022-10-12T05:53:44.102Z,12.10
2022-10-12T05:56:10.986Z,12.10
2022-10-12T05:58:37.654Z,12.10
2022-10-12T06:01:09.430Z,12.10
2022-10-12T06:03:36.379Z,12.10
2022-10-12T06:06:04.198Z,12.10
2022-10-12T06:08:32.156Z,12.10
2022-10-12T06:10:59.051Z,12.10
2022-10-12T06:13:25.929Z,12.10
2022-10-12T06:15:52.916Z,12.10
2022-10-12T06:18:20.056Z,12.20
2022-10-12T06:21:08.750Z,12.20
2022-10-12T06:23:39.310Z,12.30
2022-10-12T06:26:06.175Z,12.40
2022-10-12T06:28:32.944Z,12.50
2022-10-12T06:31:00.563Z,12.50
2022-10-12T06:33:28.119Z,12.60
2022-10-12T06:35:56.102Z,12.60
2022-10-12T06:38:23.703Z,12.70
2022-10-12T06:40:50.476Z,12.70
2022-10-12T06:43:17.317Z,12.70
2022-10-12T06:45:43.999Z,12.70
2022-10-12T06:48:13.788Z,12.70
2022-10-12T06:50:42.917Z,12.60
2022-10-12T06:53:09.610Z,12.70
2022-10-12T06:55:39.634Z,12.80
2022-10-12T06:58:06.400Z,12.70
2022-10-12T07:00:33.099Z,12.80
2022-10-12T07:02:59.755Z,12.90
2022-10-12T07:05:27.233Z,12.90
2022-10-12T07:07:53.965Z,12.90
2022-10-12T07:10:21.035Z,12.90
2022-10-12T07:12:48.636Z,12.90
2022-10-12T07:15:15.527Z,12.90
2022-10-12T07:17:42.224Z,13.00
2022-10-12T07:20:08.990Z,13.00
2022-10-12T07:22:35.983Z,13.10
2022-10-12T07:25:02.723Z,13.10
2022-10-12T07:27:29.434Z,13.10
2022-10-12T07:29:56.102Z,13.10
2022-10-12T07:32:23.042Z,13.10
2022-10-12T07:34:49.750Z,13.10
2022-10-12T07:37:16.660Z,13.20
2022-10-12T07:39:43.370Z,13.20
2022-10-12T07:42:10.177Z,13.20
2022-10-12T07:44:36.914Z,13.20
2022-10-12T07:47:03.718Z,13.30
2022-10-12T07:49:30.446Z,13.30
2022-10-12T07:51:57.148Z,13.40
2022-10-12T07:54:29.257Z,13.40
2022-10-12T07:56:56.693Z,13.50
2022-10-12T07:59:23.357Z,13.50
2022-10-12T08:01:50.126Z,13.70
2022-10-12T08:04:16.821Z,13.90
2022-10-12T08:06:44.012Z,14.00
2022-10-12T08:09:10.829Z,14.10
2022-10-12T08:11:39.857Z,14.20
2022-10-12T08:14:12.065Z,14.20
2022-10-12T08:16:38.735Z,14.20
2022-10-12T08:19:05.409Z,14.20
2022-10-12T08:21:32.091Z,14.10
2022-10-12T08:23:58.814Z,14.20
2022-10-12T08:26:25.532Z,14.30
2022-10-12T08:28:52.313Z,14.50
2022-10-12T08:31:19.406Z,14.60
2022-10-12T08:33:46.257Z,14.60
2022-10-12T08:36:13.442Z,14.80
2022-10-12T08:38:40.236Z,15.10
2022-10-12T08:41:26.197Z,15.10
2022-10-12T08:43:58.996Z,15.00
2022-10-12T08:46:27.034Z,14.80
2022-10-12T08:49:14.085Z,14.80
2022-10-12T08:51:48.811Z,14.80
2022-10-12T08:54:20.165Z,15.10
2022-10-12T08:56:46.906Z,15.40
2022-10-12T08:59:19.325Z,15.60
2022-10-12T09:05:01.310Z,15.60
2022-10-12T09:07:47.877Z,15.70
2022-10-12T09:10:26.952Z,16.00
2022-10-12T09:12:56.352Z,16.30
2022-10-12T09:15:28.589Z,16.40
2022-10-12T09:17:56.902Z,16.30
2022-10-12T09:20:28.442Z,16.20
2022-10-12T09:23:17.294Z,16.30
2022-10-12T09:25:43.994Z,16.50
2022-10-12T09:28:21.019Z,16.60
2022-10-12T09:31:15.033Z,16.80
2022-10-12T09:33:51.742Z,16.80
2022-10-12T09:36:22.411Z,16.80
2022-10-12T09:38:50.623Z,16.80
2022-10-12T09:41:30.920Z,17.00
2022-10-12T09:44:00.676Z,16.90
2022-10-12T09:46:45.454Z,17.10
2022-10-12T09:49:12.122Z,17.20
2022-10-12T09:51:39.168Z,17.20
2022-10-12T09:54:06.301Z,17.20
2022-10-12T09:56:46.286Z,17.20
2022-10-12T09:59:37.339Z,17.30
2022-10-12T10:02:19.091Z,17.60
2022-10-12T10:04:47.841Z,17.60
2022-10-12T10:07:20.331Z,17.60
2022-10-12T10:09:48.898Z,17.60
2022-10-12T10:12:26.910Z,17.60
2022-10-12T10:14:56.750Z,17.60
2022-10-12T10:17:32.457Z,17.60
2022-10-12T10:20:03.383Z,17.50
2022-10-12T10:22:30.664Z,17.50
2022-10-12T10:25:00.568Z,17.40
2022-10-12T10:27:30.007Z,17.30
2022-10-12T10:30:30.005Z,17.20
2022-10-12T10:33:17.458Z,17.20
2022-10-12T10:36:04.613Z,16.90
2022-10-12T10:38:44.948Z,16.70
2022-10-12T10:41:17.965Z,16.80
2022-10-12T10:43:48.277Z,16.90
2022-10-12T10:46:16.629Z,17.00
2022-10-12T10:49:21.343Z,17.00
2022-10-12T10:51:54.759Z,16.90
2022-10-12T10:54:28.380Z,17.00
2022-10-12T10:57:00.930Z,17.00
2022-10-12T10:59:30.398Z,17.00
2022-10-12T11:02:02.296Z,16.80
2022-10-12T11:04:39.766Z,16.80
2022-10-12T11:07:35.213Z,16.80
2022-10-12T11:10:09.102Z,16.80
2022-10-12T11:12:42.097Z,16.80
2022-10-12T11:15:19.551Z,16.90
2022-10-12T11:17:57.524Z,16.90
2022-10-12T11:20:42.146Z,16.90
2022-10-12T11:23:41.481Z,16.90
2022-10-12T11:26:24.408Z,16.90
2022-10-12T11:28:54.656Z,17.00
2022-10-12T11:31:31.231Z,17.00
2022-10-12T11:34:03.302Z,17.00
2022-10-12T11:36:32.826Z,17.00
2022-10-12T11:39:07.054Z,17.00
2022-10-12T11:42:09.654Z,17.00
2022-10-12T11:44:44.595Z,16.90
2022-10-12T11:47:30.176Z,16.80
2022-10-12T11:50:05.478Z,16.80
2022-10-12T11:52:43.770Z,16.80
2022-10-12T11:55:28.916Z,16.80
2022-10-12T11:58:00.058Z,16.80
2022-10-12T12:00:47.861Z,16.80
2022-10-12T12:03:38.611Z,16.70
2022-10-12T12:06:30.519Z,16.70
2022-10-12T12:09:03.271Z,16.70
2022-10-12T12:11:32.754Z,16.70
2022-10-12T12:14:21.333Z,16.60
2022-10-12T12:16:49.538Z,16.50
2022-10-12T12:19:36.097Z,16.50
2022-10-12T12:22:23.533Z,16.50
2022-10-12T12:25:10.477Z,16.50
2022-10-12T12:27:42.097Z,16.50
2022-10-12T12:30:17.960Z,16.50
2022-10-12T12:32:47.829Z,16.50
2022-10-12T12:35:25.278Z,16.60
2022-10-12T12:38:07.592Z,16.60
2022-10-12T12:40:35.060Z,16.60
2022-10-12T12:43:28.635Z,16.60
2022-10-12T12:45:58.122Z,16.50
2022-10-12T12:48:42.853Z,16.50
2022-10-12T12:51:18.338Z,16.40
2022-10-12T12:54:04.644Z,16.40
2022-10-12T12:56:43.272Z,16.40
2022-10-12T12:59:46.822Z,16.40
2022-10-12T13:02:31.255Z,16.40
2022-10-12T13:05:34.073Z,16.30
2022-10-12T13:08:15.741Z,16.40
2022-10-12T13:11:01.536Z,16.40
2022-10-12T13:13:55.726Z,16.30
2022-10-12T13:19:37.431Z,16.40
2022-10-12T13:22:12.743Z,16.40
2022-10-12T13:24:42.119Z,16.40
2022-10-12T13:27:20.581Z,16.40
2022-10-12T13:30:13.173Z,16.40
2022-10-12T13:33:21.350Z,16.30
2022-10-12T13:36:03.021Z,16.30
2022-10-12T13:38:30.182Z,16.40
2022-10-12T13:41:02.527Z,16.40
2022-10-12T13:43:51.539Z,16.40
2022-10-12T13:46:36.802Z,16.40
2022-10-12T13:49:12.456Z,16.40
2022-10-12T13:51:39.194Z,16.50
2022-10-12T13:54:34.862Z,16.40
2022-10-12T13:57:21.727Z,16.40
2022-10-12T13:59:56.220Z,16.40
2022-10-12T14:02:26.240Z,16.30
2022-10-12T14:04:55.178Z,16.30
2022-10-12T14:07:26.686Z,16.30
2022-10-12T14:09:57.808Z,16.40
2022-10-12T14:12:25.888Z,16.30
2022-10-12T14:14:53.758Z,16.30
2022-10-12T14:17:21.098Z,16.30
2022-10-12T14:19:53.166Z,16.30
2022-10-12T14:22:31.743Z,16.20
2022-10-12T14:25:17.292Z,16.20
2022-10-12T14:27:44.293Z,16.20
2022-10-12T14:30:22.325Z,16.20
2022-10-12T14:32:49.993Z,16.20
2022-10-12T14:35:19.472Z,16.20
2022-10-12T14:37:47.123Z,16.10
2022-10-12T14:40:40.254Z,16.10
2022-10-12T14:43:23.941Z,16.00
2022-10-12T14:45:52.021Z,16.10
2022-10-12T14:48:22.834Z,16.00
2022-10-12T14:50:50.192Z,16.10
2022-10-12T14:53:16.890Z,16.00
2022-10-12T14:55:44.599Z,16.10
2022-10-12T14:58:24.615Z,16.10
2022-10-12T15:00:57.393Z,16.10
2022-10-12T15:03:24.129Z,16.10
2022-10-12T15:05:50.815Z,16.10
2022-10-12T15:08:17.515Z,16.00
2022-10-12T15:10:45.610Z,16.00
2022-10-12T15:13:14.083Z,15.90
2022-10-12T15:15:46.495Z,15.90
2022-10-12T15:18:13.250Z,15.90
2022-10-12T15:20:42.400Z,15.80
2022-10-12T15:23:12.222Z,15.80
2022-10-12T15:25:55.889Z,15.70
2022-10-12T15:28:22.999Z,15.70
2022-10-12T15:31:18.553Z,15.70
2022-10-12T15:33:37.189Z,15.60
2022-10-12T15:36:04.041Z,15.40
2022-10-12T15:38:30.725Z,15.30
2022-10-12T15:40:58.315Z,15.20
2022-10-12T15:43:26.060Z,15.10
2022-10-12T15:45:52.993Z,15.10
2022-10-12T15:48:19.767Z,15.00
2022-10-12T15:50:49.014Z,14.90
2022-10-12T15:53:18.070Z,14.80
2022-10-12T15:55:44.800Z,14.80
2022-10-12T15:58:11.552Z,14.70
2022-10-12T16:00:38.474Z,14.60
2022-10-12T16:03:05.378Z,14.60
2022-10-12T16:05:37.004Z,14.50
2022-10-12T16:08:05.872Z,14.50
2022-10-12T16:10:38.527Z,14.40
2022-10-12T16:13:07.246Z,14.40
2022-10-12T16:15:35.009Z,14.30
2022-10-12T16:18:03.385Z,14.30
2022-10-12T16:20:31.768Z,14.30
2022-10-12T16:23:00.292Z,14.20
2022-10-12T16:25:27.871Z,14.20
2022-10-12T16:27:56.993Z,14.10
2022-10-12T16:30:25.019Z,14.10
2022-10-12T16:32:52.370Z,14.10
2022-10-12T16:35:19.315Z,14.10
2022-10-12T16:37:46.030Z,14.00
2022-10-12T16:40:13.024Z,14.00
2022-10-12T16:42:39.932Z,14.00
2022-10-12T16:45:07.229Z,14.00
2022-10-12T16:47:34.174Z,13.90
2022-10-12T16:50:02.684Z,13.90
2022-10-12T16:52:31.598Z,13.90
2022-10-12T16:54:58.377Z,13.90
2022-10-12T16:57:25.056Z,13.90
2022-10-12T16:59:51.833Z,13.90
2022-10-12T17:02:19.684Z,13.90
2022-10-12T17:04:46.944Z,13.90
2022-10-12T17:07:13.965Z,13.90
2022-10-12T17:09:40.686Z,13.90
2022-10-12T17:12:07.823Z,13.90
2022-10-12T17:14:34.500Z,13.90
2022-10-12T17:17:01.213Z,13.90
2022-10-12T17:19:31.825Z,13.90
2022-10-12T17:22:00.767Z,13.90
2022-10-12T17:24:29.411Z,13.90
2022-10-12T17:26:56.657Z,13.90
2022-10-12T17:29:24.513Z,13.90
2022-10-12T17:31:52.683Z,13.90
2022-10-12T17:34:23.677Z,13.90
2022-10-12T17:36:51.175Z,14.00
2022-10-12T17:39:18.528Z,14.00
2022-10-12T17:41:45.942Z,14.00
2022-10-12T17:44:12.788Z,13.90
2022-10-12T17:46:41.292Z,14.00
2022-10-12T17:49:11.120Z,13.90
2022-10-12T17:51:37.836Z,13.90
2022-10-12T17:54:04.941Z,13.80
2022-10-12T17:56:32.157Z,13.90
2022-10-12T17:59:01.559Z,13.80
2022-10-12T18:01:29.801Z,13.90
2022-10-12T18:03:59.914Z,13.90
2022-10-12T18:06:26.858Z,13.90
2022-10-12T18:08:53.591Z,13.90
2022-10-12T18:11:21.315Z,13.80
2022-10-12T18:13:50.739Z,13.80
2022-10-12T18:16:20.239Z,13.80
2022-10-12T18:18:50.629Z,13.60
2022-10-12T18:21:19.110Z,13.70
2022-10-12T18:23:46.149Z,13.60
2022-10-12T18:26:14.561Z,13.70
2022-10-12T18:28:41.988Z,13.70
2022-10-12T18:31:08.836Z,13.70
2022-10-12T18:33:35.534Z,13.70
2022-10-12T18:36:04.259Z,13.70
2022-10-12T18:38:31.976Z,13.60
2022-10-12T18:41:09.897Z,13.60
2022-10-12T18:43:36.824Z,13.60
2022-10-12T18:46:11.355Z,13.60
2022-10-12T18:48:38.826Z,13.60
2022-10-12T18:51:30.280Z,13.60
2022-10-12T18:53:58.055Z,13.50
2022-10-12T18:56:25.677Z,13.50
2022-10-12T18:58:52.718Z,13.50
2022-10-12T19:01:22.103Z,13.50
2022-10-12T19:03:49.436Z,13.60
2022-10-12T19:06:17.367Z,13.60
2022-10-12T19:08:45.026Z,13.60
2022-10-12T19:11:12.914Z,13.60
2022-10-12T19:13:40.238Z,13.60
2022-10-12T19:16:07.837Z,13.60
2022-10-12T19:18:35.015Z,13.60
2022-10-12T19:21:09.995Z,13.60
2022-10-12T19:23:36.803Z,13.50
2022-10-12T19:26:08.984Z,13.50
2022-10-12T19:28:36.143Z,13.50
2022-10-12T19:31:14.694Z,13.50
2022-10-12T19:33:42.215Z,13.50
2022-10-12T19:36:10.731Z,13.40
2022-10-12T19:38:38.183Z,13.50
2022-10-12T19:41:05.161Z,13.40
2022-10-12T19:43:36.180Z,13.40
2022-10-12T19:46:04.723Z,13.30
2022-10-12T19:48:31.469Z,13.30
2022-10-12T19:51:03.916Z,13.30
2022-10-12T19:53:30.758Z,13.20
2022-10-12T19:56:06.055Z,13.30
2022-10-12T19:58:33.026Z,13.20
2022-10-12T20:01:04.707Z,13.20
2022-10-12T20:03:32.584Z,13.20
2022-10-12T20:05:59.308Z,13.20
2022-10-12T20:08:26.343Z,13.10
2022-10-12T20:10:53.565Z,13.10
2022-10-12T20:13:20.462Z,13.10
2022-10-12T20:15:50.933Z,13.10
2022-10-12T20:18:17.811Z,13.20
2022-10-12T20:20:44.650Z,13.10
2022-10-12T20:23:11.355Z,13.10
2022-10-12T20:25:42.406Z,13.10
2022-10-12T20:28:09.164Z,13.20
2022-10-12T20:30:35.970Z,13.20
2022-10-12T20:33:02.806Z,13.20
2022-10-12T20:35:29.541Z,13.20
2022-10-12T20:37:56.265Z,13.20
2022-10-12T20:40:23.230Z,13.20
2022-10-12T20:42:49.973Z,13.20
2022-10-12T20:45:16.733Z,13.10
2022-10-12T20:47:44.364Z,13.10
2022-10-12T20:50:12.435Z,13.10
2022-10-12T20:52:39.869Z,13.10
2022-10-12T20:55:06.894Z,13.10
2022-10-12T20:57:33.553Z,13.10
2022-10-12T21:00:00.270Z,13.10
2022-10-12T21:02:26.940Z,13.10
2022-10-12T21:04:54.126Z,13.00
2022-10-12T21:07:20.826Z,13.00
2022-10-12T21:09:47.537Z,12.90
2022-10-12T21:12:14.242Z,12.90
2022-10-12T21:14:40.925Z,12.90
2022-10-12T21:17:07.582Z,12.90
2022-10-12T21:19:34.614Z,12.90
2022-10-12T21:22:01.298Z,12.90
2022-10-12T21:24:27.964Z,12.90
2022-10-12T21:26:54.635Z,12.90
2022-10-12T21:29:21.409Z,12.90
2022-10-12T21:31:48.077Z,12.80
2022-10-12T21:34:14.814Z,12.80
2022-10-12T21:36:41.661Z,12.80
2022-10-12T21:39:12.326Z,12.80
2022-10-12T21:41:39.423Z,12.80
2022-10-12T21:44:06.272Z,12.80
2022-10-12T21:46:35.342Z,12.80
2022-10-12T21:49:04.388Z,12.80
2022-10-12T21:51:32.104Z,12.70
2022-10-12T21:53:59.073Z,12.60
2022-10-12T21:56:29.883Z,12.70
2022-10-12T21:58:58.643Z,12.70
2022-10-12T22:01:31.299Z,12.70
2022-10-12T22:04:00.311Z,12.70
2022-10-12T22:06:28.640Z,12.70
2022-10-12T22:09:02.083Z,12.70
2022-10-12T22:11:30.505Z,12.70
2022-10-12T22:14:00.152Z,12.70
2022-10-12T22:16:29.064Z,12.70
2022-10-12T22:19:00.289Z,12.80
2022-10-12T22:21:32.752Z,12.70
2022-10-12T22:24:00.484Z,12.70
2022-10-12T22:26:27.855Z,12.70
2022-10-12T22:28:55.287Z,12.60
2022-10-12T22:31:24.627Z,12.50
2022-10-12T22:33:52.434Z,12.60
2022-10-12T22:36:19.361Z,12.50
2022-10-12T22:38:46.369Z,12.40
2022-10-12T22:41:18.547Z,12.40
2022-10-12T22:43:49.389Z,12.30
2022-10-12T22:46:16.917Z,12.30
2022-10-12T22:48:43.675Z,12.30
2022-10-12T22:51:17.066Z,12.30
2022-10-12T22:53:43.860Z,12.30
2022-10-12T22:56:15.677Z,12.40
2022-10-12T22:58:42.907Z,12.40
2022-10-12T23:01:12.714Z,12.30
2022-10-12T23:03:39.928Z,12.30
2022-10-12T23:06:11.274Z,12.30
2022-10-12T23:08:38.039Z,12.30
2022-10-12T23:11:09.279Z,12.30
2022-10-12T23:13:37.542Z,12.40
2022-10-12T23:16:06.877Z,12.40
2022-10-12T23:18:34.334Z,12.40
2022-10-12T23:21:04.872Z,12.30
2022-10-12T23:23:32.793Z,12.30
2022-10-12T23:26:01.454Z,12.30
2022-10-12T23:28:28.763Z,12.30
2022-10-12T23:30:55.428Z,12.20
2022-10-12T23:33:22.300Z,12.20
2022-10-12T23:36:00.534Z,12.20
2022-10-12T23:38:30.256Z,12.20
2022-10-12T23:40:57.574Z,12.20
2022-10-12T23:43:24.392Z,12.10
2022-10-12T23:45:54.055Z,12.10
2022-10-12T23:48:21.165Z,12.00
2022-10-12T23:50:48.090Z,12.00
2022-10-12T23:53:15.038Z,12.00
2022-10-12T23:55:41.752Z,12.00
2022-10-12T23:58:08.482Z,12.00
